Council Bluffs, Iowa
Current Conditions -  °F | °C
As of 5:52 AM on Sunday 25 Jan 2015 (Local Time) from KOMA Reporting Station
Overcast Overcast  
Wind Chill: 24°   Ceiling: 1300
Heat Index: 36°   Visibility: 10mi
Dew Point: 32°   Wind: 23mph
Humidity: 86%   Direction: 340°NNW
Pressure: 29.74"   Gusts: 33mph
Location:  41.26°N, 95.85°W
Report Text: KOMA 251152Z 34020G29KT 10SM SCT009 OVC013 02/00 A2974 RMK AO2 PK WND 33030/1108 RAE36 SLP073 P0000 60001 70003 T00220000 10072 20017 51032
Loading
Personal Weather Stations






























Interactive Weather Map New forecast layout! Learn more

10-Day Weather Forecast

Advertisements
Track Severe Weather on mobile